METAR Data
IDs: Format: Raw Decoded Include TAF

Data at: 0311 UTC 24 Jun 2021

METAR for:KARW (Beaufort Cnty, GA, US)
Text:KARW 240255Z AUTO 09009G14KT 10SM CLR 23/20 A3018 RMK AO2
Temperature: 23.0°C ( 73°F)
Dewpoint: 20.0°C ( 68°F) [RH = 83%]
Pressure (altimeter):30.18 inches Hg (1022.1 mb)
Winds:from the E (90 degrees) at 10 MPH (9 knots; 4.6 m/s) gusting to 16 MPH (14 knots; 7.2 m/s)
Visibility:10 or more sm (16+ km)
Ceiling:at least 12,000 feet AGL
Clouds:sky clear below 12,000 feet AGL
QC Flag:automated observation with no human augmentation